sensor_id;sensor_type;location;lat;lon;timestamp;temperature;humidity
13488;DHT22;6816;48.506;9.050;2023-06-22T00:00:26;23.90;95.60
13488;DHT22;6816;48.506;9.050;2023-06-22T00:03:27;23.80;96.10
13488;DHT22;6816;48.506;9.050;2023-06-22T00:06:27;23.80;95.80
13488;DHT22;6816;48.506;9.050;2023-06-22T00:09:28;23.80;95.80
13488;DHT22;6816;48.506;9.050;2023-06-22T00:12:29;23.70;95.80
13488;DHT22;6816;48.506;9.050;2023-06-22T00:15:30;23.70;95.80
13488;DHT22;6816;48.506;9.050;2023-06-22T00:18:30;23.60;95.80
13488;DHT22;6816;48.506;9.050;2023-06-22T00:21:33;23.50;95.90
13488;DHT22;6816;48.506;9.050;2023-06-22T00:24:33;23.50;95.90
13488;DHT22;6816;48.506;9.050;2023-06-22T00:27:35;23.40;95.90
13488;DHT22;6816;48.506;9.050;2023-06-22T00:30:36;23.40;95.90
13488;DHT22;6816;48.506;9.050;2023-06-22T00:33:37;23.30;96.00
13488;DHT22;6816;48.506;9.050;2023-06-22T00:36:37;23.30;96.10
13488;DHT22;6816;48.506;9.050;2023-06-22T00:39:41;23.20;96.20
13488;DHT22;6816;48.506;9.050;2023-06-22T00:42:42;23.10;96.30
13488;DHT22;6816;48.506;9.050;2023-06-22T00:45:42;23.10;96.60
13488;DHT22;6816;48.506;9.050;2023-06-22T00:48:43;23.00;96.80
13488;DHT22;6816;48.506;9.050;2023-06-22T00:51:44;22.90;96.90
13488;DHT22;6816;48.506;9.050;2023-06-22T00:54:49;22.90;97.10
13488;DHT22;6816;48.506;9.050;2023-06-22T00:57:50;22.80;97.30
13488;DHT22;6816;48.506;9.050;2023-06-22T01:00:53;22.80;97.50
13488;DHT22;6816;48.506;9.050;2023-06-22T01:03:55;22.70;97.60
13488;DHT22;6816;48.506;9.050;2023-06-22T01:07:08;22.70;97.70
13488;DHT22;6816;48.506;9.050;2023-06-22T01:10:28;22.70;97.50
13488;DHT22;6816;48.506;9.050;2023-06-22T01:16:48;22.60;97.70
13488;DHT22;6816;48.506;9.050;2023-06-22T01:19:51;22.50;97.90
13488;DHT22;6816;48.506;9.050;2023-06-22T01:23:40;22.50;98.00
13488;DHT22;6816;48.506;9.050;2023-06-22T01:30:24;22.40;97.40
13488;DHT22;6816;48.506;9.050;2023-06-22T01:33:27;22.30;98.40
13488;DHT22;6816;48.506;9.050;2023-06-22T01:36:28;22.30;98.60
13488;DHT22;6816;48.506;9.050;2023-06-22T01:39:30;22.20;98.80
13488;DHT22;6816;48.506;9.050;2023-06-22T01:42:32;22.20;98.80
13488;DHT22;6816;48.506;9.050;2023-06-22T01:45:32;22.10;98.80
13488;DHT22;6816;48.506;9.050;2023-06-22T01:48:33;22.10;98.90
13488;DHT22;6816;48.506;9.050;2023-06-22T01:51:34;22.10;98.90
13488;DHT22;6816;48.506;9.050;2023-06-22T01:54:35;22.00;99.00
13488;DHT22;6816;48.506;9.050;2023-06-22T01:57:35;22.00;99.10
13488;DHT22;6816;48.506;9.050;2023-06-22T02:00:38;21.90;99.40
13488;DHT22;6816;48.506;9.050;2023-06-22T02:04:03;21.90;99.50
13488;DHT22;6816;48.506;9.050;2023-06-22T02:07:10;21.80;99.10
13488;DHT22;6816;48.506;9.050;2023-06-22T02:10:14;21.80;99.80
13488;DHT22;6816;48.506;9.050;2023-06-22T02:13:17;21.80;99.90
13488;DHT22;6816;48.506;9.050;2023-06-22T02:16:18;21.80;99.90
13488;DHT22;6816;48.506;9.050;2023-06-22T02:19:24;21.70;99.90
13488;DHT22;6816;48.506;9.050;2023-06-22T02:22:25;21.70;99.90
13488;DHT22;6816;48.506;9.050;2023-06-22T02:25:25;21.70;99.90
13488;DHT22;6816;48.506;9.050;2023-06-22T02:28:26;21.70;99.90
13488;DHT22;6816;48.506;9.050;2023-06-22T02:31:26;21.70;99.90
13488;DHT22;6816;48.506;9.050;2023-06-22T02:34:31;21.70;99.90
13488;DHT22;6816;48.506;9.050;2023-06-22T02:37:32;21.70;99.90
13488;DHT22;6816;48.506;9.050;2023-06-22T02:40:33;21.70;99.90
13488;DHT22;6816;48.506;9.050;2023-06-22T02:43:34;21.60;99.90
13488;DHT22;6816;48.506;9.050;2023-06-22T02:46:35;21.60;99.90
13488;DHT22;6816;48.506;9.050;2023-06-22T02:49:36;21.60;99.90
13488;DHT22;6816;48.506;9.050;2023-06-22T02:52:37;21.60;99.90
13488;DHT22;6816;48.506;9.050;2023-06-22T02:55:39;21.60;99.90
13488;DHT22;6816;48.506;9.050;2023-06-22T02:58:40;21.50;99.90
13488;DHT22;6816;48.506;9.050;2023-06-22T03:01:40;21.50;99.90
13488;DHT22;6816;48.506;9.050;2023-06-22T03:04:41;21.50;99.90
13488;DHT22;6816;48.506;9.050;2023-06-22T03:07:43;21.50;99.90
13488;DHT22;6816;48.506;9.050;2023-06-22T03:10:44;21.40;99.90
13488;DHT22;6816;48.506;9.050;2023-06-22T03:13:44;21.40;99.90
13488;DHT22;6816;48.506;9.050;2023-06-22T03:16:46;21.40;99.90
13488;DHT22;6816;48.506;9.050;2023-06-22T03:19:47;21.40;99.90
13488;DHT22;6816;48.506;9.050;2023-06-22T03:22:48;21.30;99.90
13488;DHT22;6816;48.506;9.050;2023-06-22T03:25:49;21.30;99.90
13488;DHT22;6816;48.506;9.050;2023-06-22T03:28:49;21.30;99.90
13488;DHT22;6816;48.506;9.050;2023-06-22T03:31:50;21.30;99.90
13488;DHT22;6816;48.506;9.050;2023-06-22T03:34:50;21.20;99.90
13488;DHT22;6816;48.506;9.050;2023-06-22T03:37:51;21.20;99.90
13488;DHT22;6816;48.506;9.050;2023-06-22T03:40:52;21.20;99.90
13488;DHT22;6816;48.506;9.050;2023-06-22T03:43:52;21.10;99.90
13488;DHT22;6816;48.506;9.050;2023-06-22T03:46:53;21.10;99.90
13488;DHT22;6816;48.506;9.050;2023-06-22T03:49:53;21.10;99.90
13488;DHT22;6816;48.506;9.050;2023-06-22T03:52:55;21.10;99.90
13488;DHT22;6816;48.506;9.050;2023-06-22T03:55:56;21.00;99.90
13488;DHT22;6816;48.506;9.050;2023-06-22T03:58:57;21.00;99.90
13488;DHT22;6816;48.506;9.050;2023-06-22T04:01:57;21.00;99.90
13488;DHT22;6816;48.506;9.050;2023-06-22T04:04:58;21.00;99.90
13488;DHT22;6816;48.506;9.050;2023-06-22T04:07:58;21.00;99.90
13488;DHT22;6816;48.506;9.050;2023-06-22T04:10:59;21.00;99.90
13488;DHT22;6816;48.506;9.050;2023-06-22T04:14:00;21.00;99.90
13488;DHT22;6816;48.506;9.050;2023-06-22T04:17:01;21.00;99.90
13488;DHT22;6816;48.506;9.050;2023-06-22T04:20:02;21.00;99.90
13488;DHT22;6816;48.506;9.050;2023-06-22T04:23:05;21.00;99.90
13488;DHT22;6816;48.506;9.050;2023-06-22T04:26:05;21.00;99.90
13488;DHT22;6816;48.506;9.050;2023-06-22T04:29:06;21.00;99.90
13488;DHT22;6816;48.506;9.050;2023-06-22T04:32:08;21.00;99.90
13488;DHT22;6816;48.506;9.050;2023-06-22T04:35:09;21.00;99.90
13488;DHT22;6816;48.506;9.050;2023-06-22T04:38:12;21.00;99.90
13488;DHT22;6816;48.506;9.050;2023-06-22T04:41:13;21.00;99.90
13488;DHT22;6816;48.506;9.050;2023-06-22T04:44:23;21.10;99.90
13488;DHT22;6816;48.506;9.050;2023-06-22T04:47:24;21.10;99.90
13488;DHT22;6816;48.506;9.050;2023-06-22T04:50:25;21.10;99.90
13488;DHT22;6816;48.506;9.050;2023-06-22T04:53:25;21.10;99.90
13488;DHT22;6816;48.506;9.050;2023-06-22T04:56:30;21.20;99.90
13488;DHT22;6816;48.506;9.050;2023-06-22T04:59:31;21.30;99.90
13488;DHT22;6816;48.506;9.050;2023-06-22T05:02:32;21.40;99.90
13488;DHT22;6816;48.506;9.050;2023-06-22T05:05:33;21.40;99.90
13488;DHT22;6816;48.506;9.050;2023-06-22T05:08:33;21.50;99.90
13488;DHT22;6816;48.506;9.050;2023-06-22T05:11:35;21.60;99.90
13488;DHT22;6816;48.506;9.050;2023-06-22T05:14:35;21.60;99.90
13488;DHT22;6816;48.506;9.050;2023-06-22T05:17:36;21.70;99.90
13488;DHT22;6816;48.506;9.050;2023-06-22T05:20:42;21.90;99.90
13488;DHT22;6816;48.506;9.050;2023-06-22T05:23:43;22.00;99.90
13488;DHT22;6816;48.506;9.050;2023-06-22T05:26:44;22.20;99.90
13488;DHT22;6816;48.506;9.050;2023-06-22T05:29:44;22.30;99.90
13488;DHT22;6816;48.506;9.050;2023-06-22T05:32:45;22.40;99.90
13488;DHT22;6816;48.506;9.050;2023-06-22T05:35:46;22.60;99.90
13488;DHT22;6816;48.506;9.050;2023-06-22T05:38:47;22.80;99.90
13488;DHT22;6816;48.506;9.050;2023-06-22T05:41:48;22.90;99.90
13488;DHT22;6816;48.506;9.050;2023-06-22T05:44:48;23.10;99.90
13488;DHT22;6816;48.506;9.050;2023-06-22T05:47:49;23.30;99.90
13488;DHT22;6816;48.506;9.050;2023-06-22T05:50:50;23.40;99.90
13488;DHT22;6816;48.506;9.050;2023-06-22T05:53:50;23.60;99.90
13488;DHT22;6816;48.506;9.050;2023-06-22T05:56:51;23.80;99.90
13488;DHT22;6816;48.506;9.050;2023-06-22T05:59:52;23.90;99.90
13488;DHT22;6816;48.506;9.050;2023-06-22T06:02:54;24.10;99.90
13488;DHT22;6816;48.506;9.050;2023-06-22T06:05:54;24.20;99.90
13488;DHT22;6816;48.506;9.050;2023-06-22T06:08:55;24.30;99.90
13488;DHT22;6816;48.506;9.050;2023-06-22T06:11:56;24.50;99.90
13488;DHT22;6816;48.506;9.050;2023-06-22T06:14:57;24.60;99.90
13488;DHT22;6816;48.506;9.050;2023-06-22T06:17:58;24.70;99.90
13488;DHT22;6816;48.506;9.050;2023-06-22T06:20:58;24.80;99.90
13488;DHT22;6816;48.506;9.050;2023-06-22T06:23:59;25.00;99.90
13488;DHT22;6816;48.506;9.050;2023-06-22T06:26:59;25.10;99.90
13488;DHT22;6816;48.506;9.050;2023-06-22T06:30:00;25.20;99.90
13488;DHT22;6816;48.506;9.050;2023-06-22T06:33:01;25.30;99.90
13488;DHT22;6816;48.506;9.050;2023-06-22T06:36:01;25.40;99.90
13488;DHT22;6816;48.506;9.050;2023-06-22T06:39:03;25.60;99.90
13488;DHT22;6816;48.506;9.050;2023-06-22T06:42:05;25.60;99.90
13488;DHT22;6816;48.506;9.050;2023-06-22T06:45:06;25.80;99.90
13488;DHT22;6816;48.506;9.050;2023-06-22T06:48:07;25.90;99.90
13488;DHT22;6816;48.506;9.050;2023-06-22T06:51:07;26.00;99.90
13488;DHT22;6816;48.506;9.050;2023-06-22T06:54:11;26.10;99.90
13488;DHT22;6816;48.506;9.050;2023-06-22T06:57:11;26.30;99.90
13488;DHT22;6816;48.506;9.050;2023-06-22T07:00:14;26.30;99.90
13488;DHT22;6816;48.506;9.050;2023-06-22T07:03:15;26.40;99.90
13488;DHT22;6816;48.506;9.050;2023-06-22T07:06:16;26.50;99.90
13488;DHT22;6816;48.506;9.050;2023-06-22T07:09:16;26.60;99.60
13488;DHT22;6816;48.506;9.050;2023-06-22T07:12:19;26.70;99.20
13488;DHT22;6816;48.506;9.050;2023-06-22T07:15:19;26.80;99.50
13488;DHT22;6816;48.506;9.050;2023-06-22T07:18:20;26.80;99.00
13488;DHT22;6816;48.506;9.050;2023-06-22T07:21:20;27.00;98.70
13488;DHT22;6816;48.506;9.050;2023-06-22T07:24:21;27.00;98.90
13488;DHT22;6816;48.506;9.050;2023-06-22T07:27:22;27.20;98.70
13488;DHT22;6816;48.506;9.050;2023-06-22T07:30:23;27.30;98.40
13488;DHT22;6816;48.506;9.050;2023-06-22T07:33:23;27.40;98.40
13488;DHT22;6816;48.506;9.050;2023-06-22T07:36:24;27.50;97.80
13488;DHT22;6816;48.506;9.050;2023-06-22T07:39:25;27.70;97.30
13488;DHT22;6816;48.506;9.050;2023-06-22T07:42:27;27.80;96.80
13488;DHT22;6816;48.506;9.050;2023-06-22T07:45:27;28.00;96.70
13488;DHT22;6816;48.506;9.050;2023-06-22T07:48:28;28.00;96.00
13488;DHT22;6816;48.506;9.050;2023-06-22T07:51:28;28.10;95.50
13488;DHT22;6816;48.506;9.050;2023-06-22T07:54:29;28.20;95.40
13488;DHT22;6816;48.506;9.050;2023-06-22T07:57:30;28.30;95.20
13488;DHT22;6816;48.506;9.050;2023-06-22T08:00:34;28.40;94.80
13488;DHT22;6816;48.506;9.050;2023-06-22T08:03:35;28.50;94.80
13488;DHT22;6816;48.506;9.050;2023-06-22T08:06:35;28.60;94.70
13488;DHT22;6816;48.506;9.050;2023-06-22T08:09:36;28.70;94.60
13488;DHT22;6816;48.506;9.050;2023-06-22T08:12:37;28.80;94.20
13488;DHT22;6816;48.506;9.050;2023-06-22T08:15:38;28.90;94.10
13488;DHT22;6816;48.506;9.050;2023-06-22T08:18:38;29.00;94.00
13488;DHT22;6816;48.506;9.050;2023-06-22T08:21:39;29.10;94.10
13488;DHT22;6816;48.506;9.050;2023-06-22T08:24:39;29.10;93.80
13488;DHT22;6816;48.506;9.050;2023-06-22T08:27:40;29.30;93.80
13488;DHT22;6816;48.506;9.050;2023-06-22T08:30:41;29.40;93.80
13488;DHT22;6816;48.506;9.050;2023-06-22T08:33:41;29.50;93.40
13488;DHT22;6816;48.506;9.050;2023-06-22T08:36:44;29.70;93.10
13488;DHT22;6816;48.506;9.050;2023-06-22T08:39:51;29.80;93.10
13488;DHT22;6816;48.506;9.050;2023-06-22T08:42:52;29.80;92.30
13488;DHT22;6816;48.506;9.050;2023-06-22T08:45:52;29.90;92.00
13488;DHT22;6816;48.506;9.050;2023-06-22T08:48:53;30.00;91.70
13488;DHT22;6816;48.506;9.050;2023-06-22T08:51:53;30.00;91.30
13488;DHT22;6816;48.506;9.050;2023-06-22T08:54:56;30.00;90.90
13488;DHT22;6816;48.506;9.050;2023-06-22T08:57:58;30.00;90.90
13488;DHT22;6816;48.506;9.050;2023-06-22T09:00:59;30.00;90.80
13488;DHT22;6816;48.506;9.050;2023-06-22T09:04:01;30.00;90.60
13488;DHT22;6816;48.506;9.050;2023-06-22T09:07:02;30.00;90.80
13488;DHT22;6816;48.506;9.050;2023-06-22T09:10:03;30.00;90.70
13488;DHT22;6816;48.506;9.050;2023-06-22T09:13:07;30.00;90.40
13488;DHT22;6816;48.506;9.050;2023-06-22T09:16:08;30.10;90.40
13488;DHT22;6816;48.506;9.050;2023-06-22T09:19:08;30.10;90.40
13488;DHT22;6816;48.506;9.050;2023-06-22T09:22:09;30.20;90.40
13488;DHT22;6816;48.506;9.050;2023-06-22T09:25:10;30.20;90.30
13488;DHT22;6816;48.506;9.050;2023-06-22T09:28:10;30.20;89.80
13488;DHT22;6816;48.506;9.050;2023-06-22T09:31:11;30.20;89.40
13488;DHT22;6816;48.506;9.050;2023-06-22T09:34:12;30.30;89.40
13488;DHT22;6816;48.506;9.050;2023-06-22T09:37:12;30.30;89.50
13488;DHT22;6816;48.506;9.050;2023-06-22T09:40:13;30.40;88.60
13488;DHT22;6816;48.506;9.050;2023-06-22T09:43:17;30.50;88.20
13488;DHT22;6816;48.506;9.050;2023-06-22T09:46:17;30.60;88.20
13488;DHT22;6816;48.506;9.050;2023-06-22T09:49:18;30.60;88.30
13488;DHT22;6816;48.506;9.050;2023-06-22T09:52:19;30.70;88.30
13488;DHT22;6816;48.506;9.050;2023-06-22T09:55:20;30.80;87.80
13488;DHT22;6816;48.506;9.050;2023-06-22T09:58:20;30.80;87.20
13488;DHT22;6816;48.506;9.050;2023-06-22T10:01:21;30.90;87.00
13488;DHT22;6816;48.506;9.050;2023-06-22T10:04:22;31.00;87.20
13488;DHT22;6816;48.506;9.050;2023-06-22T10:07:22;31.00;86.90
13488;DHT22;6816;48.506;9.050;2023-06-22T10:10:23;31.10;87.30
13488;DHT22;6816;48.506;9.050;2023-06-22T10:13:23;31.20;87.00
13488;DHT22;6816;48.506;9.050;2023-06-22T10:16:30;31.20;86.60
13488;DHT22;6816;48.506;9.050;2023-06-22T10:19:31;31.40;84.30
13488;DHT22;6816;48.506;9.050;2023-06-22T10:22:32;31.40;86.40
13488;DHT22;6816;48.506;9.050;2023-06-22T10:25:32;31.60;85.80
13488;DHT22;6816;48.506;9.050;2023-06-22T10:28:33;31.60;85.60
13488;DHT22;6816;48.506;9.050;2023-06-22T10:31:33;31.70;84.70
13488;DHT22;6816;48.506;9.050;2023-06-22T10:34:34;31.80;84.20
13488;DHT22;6816;48.506;9.050;2023-06-22T10:37:35;31.80;83.70
13488;DHT22;6816;48.506;9.050;2023-06-22T10:40:36;31.90;83.30
13488;DHT22;6816;48.506;9.050;2023-06-22T10:43:36;31.90;83.50
13488;DHT22;6816;48.506;9.050;2023-06-22T10:46:37;32.00;84.00
13488;DHT22;6816;48.506;9.050;2023-06-22T10:49:38;32.00;83.80
13488;DHT22;6816;48.506;9.050;2023-06-22T10:52:40;32.20;83.90
13488;DHT22;6816;48.506;9.050;2023-06-22T10:55:42;32.30;84.00
13488;DHT22;6816;48.506;9.050;2023-06-22T10:58:43;32.30;83.00
13488;DHT22;6816;48.506;9.050;2023-06-22T11:01:43;32.30;82.50
13488;DHT22;6816;48.506;9.050;2023-06-22T11:04:44;32.40;82.10
13488;DHT22;6816;48.506;9.050;2023-06-22T11:07:44;32.50;82.20
13488;DHT22;6816;48.506;9.050;2023-06-22T11:10:45;32.60;82.40
13488;DHT22;6816;48.506;9.050;2023-06-22T11:13:45;32.60;81.50
13488;DHT22;6816;48.506;9.050;2023-06-22T11:16:46;32.70;81.60
13488;DHT22;6816;48.506;9.050;2023-06-22T11:19:47;32.80;81.10
13488;DHT22;6816;48.506;9.050;2023-06-22T11:22:47;32.80;80.80
13488;DHT22;6816;48.506;9.050;2023-06-22T11:25:48;32.80;80.80
13488;DHT22;6816;48.506;9.050;2023-06-22T11:28:48;32.90;80.90
13488;DHT22;6816;48.506;9.050;2023-06-22T11:31:49;33.00;81.00
13488;DHT22;6816;48.506;9.050;2023-06-22T11:34:50;33.00;80.50
13488;DHT22;6816;48.506;9.050;2023-06-22T11:37:50;33.10;80.10
13488;DHT22;6816;48.506;9.050;2023-06-22T11:40:51;33.10;79.40
13488;DHT22;6816;48.506;9.050;2023-06-22T11:43:51;33.20;80.30
13488;DHT22;6816;48.506;9.050;2023-06-22T11:46:52;33.20;79.50
13488;DHT22;6816;48.506;9.050;2023-06-22T11:49:53;33.20;79.30
13488;DHT22;6816;48.506;9.050;2023-06-22T11:52:53;33.20;78.90
13488;DHT22;6816;48.506;9.050;2023-06-22T11:55:54;33.20;79.30
13488;DHT22;6816;48.506;9.050;2023-06-22T11:58:55;33.20;79.30
13488;DHT22;6816;48.506;9.050;2023-06-22T12:01:57;33.30;78.90
13488;DHT22;6816;48.506;9.050;2023-06-22T12:04:58;33.30;77.80
13488;DHT22;6816;48.506;9.050;2023-06-22T12:07:59;33.20;78.20
13488;DHT22;6816;48.506;9.050;2023-06-22T12:10:59;33.20;78.70
13488;DHT22;6816;48.506;9.050;2023-06-22T12:14:00;33.20;78.80
13488;DHT22;6816;48.506;9.050;2023-06-22T12:17:02;33.20;78.30
13488;DHT22;6816;48.506;9.050;2023-06-22T12:20:03;33.10;78.50
13488;DHT22;6816;48.506;9.050;2023-06-22T12:23:06;33.10;79.20
13488;DHT22;6816;48.506;9.050;2023-06-22T12:26:07;33.00;79.10
13488;DHT22;6816;48.506;9.050;2023-06-22T12:29:07;32.80;79.10
13488;DHT22;6816;48.506;9.050;2023-06-22T12:32:08;32.90;79.00
13488;DHT22;6816;48.506;9.050;2023-06-22T12:35:08;32.80;79.40
13488;DHT22;6816;48.506;9.050;2023-06-22T12:38:14;32.70;79.40
13488;DHT22;6816;48.506;9.050;2023-06-22T12:41:14;32.70;78.60
13488;DHT22;6816;48.506;9.050;2023-06-22T12:44:15;32.60;78.80
13488;DHT22;6816;48.506;9.050;2023-06-22T12:47:15;32.70;79.90
13488;DHT22;6816;48.506;9.050;2023-06-22T12:50:16;32.60;79.10
13488;DHT22;6816;48.506;9.050;2023-06-22T12:53:17;32.70;79.10
13488;DHT22;6816;48.506;9.050;2023-06-22T12:56:17;32.60;78.80
13488;DHT22;6816;48.506;9.050;2023-06-22T12:59:18;32.60;79.00
13488;DHT22;6816;48.506;9.050;2023-06-22T13:02:18;32.60;78.80
13488;DHT22;6816;48.506;9.050;2023-06-22T13:05:19;32.60;78.20
13488;DHT22;6816;48.506;9.050;2023-06-22T13:08:20;32.70;78.20
13488;DHT22;6816;48.506;9.050;2023-06-22T13:11:20;32.70;78.70
13488;DHT22;6816;48.506;9.050;2023-06-22T13:14:21;32.70;79.40
13488;DHT22;6816;48.506;9.050;2023-06-22T13:17:21;32.80;79.00
13488;DHT22;6816;48.506;9.050;2023-06-22T13:20:22;32.80;78.80
13488;DHT22;6816;48.506;9.050;2023-06-22T13:23:23;32.80;78.80
13488;DHT22;6816;48.506;9.050;2023-06-22T13:26:24;32.90;78.40
13488;DHT22;6816;48.506;9.050;2023-06-22T13:29:24;33.00;78.10
13488;DHT22;6816;48.506;9.050;2023-06-22T13:32:25;33.00;78.20
13488;DHT22;6816;48.506;9.050;2023-06-22T13:35:25;33.10;78.30
13488;DHT22;6816;48.506;9.050;2023-06-22T13:38:26;33.20;77.90
13488;DHT22;6816;48.506;9.050;2023-06-22T13:41:27;33.20;77.80
13488;DHT22;6816;48.506;9.050;2023-06-22T13:44:27;33.30;77.40
13488;DHT22;6816;48.506;9.050;2023-06-22T13:47:29;33.40;77.30
13488;DHT22;6816;48.506;9.050;2023-06-22T13:50:30;33.40;77.10
13488;DHT22;6816;48.506;9.050;2023-06-22T13:53:31;33.50;77.50
13488;DHT22;6816;48.506;9.050;2023-06-22T13:56:32;33.50;77.20
13488;DHT22;6816;48.506;9.050;2023-06-22T13:59:33;33.50;76.80
13488;DHT22;6816;48.506;9.050;2023-06-22T14:02:33;33.50;76.40
13488;DHT22;6816;48.506;9.050;2023-06-22T14:05:34;33.50;76.40
13488;DHT22;6816;48.506;9.050;2023-06-22T14:08:36;33.50;76.40
13488;DHT22;6816;48.506;9.050;2023-06-22T14:11:36;33.40;75.70
13488;DHT22;6816;48.506;9.050;2023-06-22T14:14:38;33.40;77.00
13488;DHT22;6816;48.506;9.050;2023-06-22T14:17:38;33.40;76.10
13488;DHT22;6816;48.506;9.050;2023-06-22T14:20:39;33.40;76.00
13488;DHT22;6816;48.506;9.050;2023-06-22T14:23:40;33.40;76.50
13488;DHT22;6816;48.506;9.050;2023-06-22T14:26:41;33.50;77.00
13488;DHT22;6816;48.506;9.050;2023-06-22T14:29:41;33.60;77.00
13488;DHT22;6816;48.506;9.050;2023-06-22T14:32:43;33.70;77.30
13488;DHT22;6816;48.506;9.050;2023-06-22T14:35:44;33.80;76.70
13488;DHT22;6816;48.506;9.050;2023-06-22T14:38:45;33.90;77.10
13488;DHT22;6816;48.506;9.050;2023-06-22T14:41:46;34.10;76.60
13488;DHT22;6816;48.506;9.050;2023-06-22T14:44:47;34.20;76.10
13488;DHT22;6816;48.506;9.050;2023-06-22T14:47:47;34.40;75.50
13488;DHT22;6816;48.506;9.050;2023-06-22T14:50:48;34.50;74.40
13488;DHT22;6816;48.506;9.050;2023-06-22T14:53:49;34.50;72.40
13488;DHT22;6816;48.506;9.050;2023-06-22T14:56:50;34.50;71.40
13488;DHT22;6816;48.506;9.050;2023-06-22T14:59:51;34.50;70.50
13488;DHT22;6816;48.506;9.050;2023-06-22T15:02:51;34.60;69.50
13488;DHT22;6816;48.506;9.050;2023-06-22T15:05:52;34.60;68.50
13488;DHT22;6816;48.506;9.050;2023-06-22T15:08:53;34.50;67.20
13488;DHT22;6816;48.506;9.050;2023-06-22T15:11:53;34.50;66.60
13488;DHT22;6816;48.506;9.050;2023-06-22T15:14:54;34.50;66.00
13488;DHT22;6816;48.506;9.050;2023-06-22T15:17:54;34.40;64.80
13488;DHT22;6816;48.506;9.050;2023-06-22T15:20:55;34.30;63.80
13488;DHT22;6816;48.506;9.050;2023-06-22T15:23:56;34.20;62.90
13488;DHT22;6816;48.506;9.050;2023-06-22T15:26:56;34.10;62.70
13488;DHT22;6816;48.506;9.050;2023-06-22T15:29:57;34.00;62.80
13488;DHT22;6816;48.506;9.050;2023-06-22T15:32:58;33.90;62.70
13488;DHT22;6816;48.506;9.050;2023-06-22T15:35:58;33.80;62.60
13488;DHT22;6816;48.506;9.050;2023-06-22T15:39:04;33.70;62.00
13488;DHT22;6816;48.506;9.050;2023-06-22T15:42:04;33.60;61.20
13488;DHT22;6816;48.506;9.050;2023-06-22T15:45:05;33.50;61.30
13488;DHT22;6816;48.506;9.050;2023-06-22T15:48:06;33.40;61.00
13488;DHT22;6816;48.506;9.050;2023-06-22T15:51:07;33.30;61.00
13488;DHT22;6816;48.506;9.050;2023-06-22T15:54:07;33.10;60.80
13488;DHT22;6816;48.506;9.050;2023-06-22T15:57:08;33.10;61.10
13488;DHT22;6816;48.506;9.050;2023-06-22T16:00:09;32.90;61.10
13488;DHT22;6816;48.506;9.050;2023-06-22T16:03:14;32.80;61.60
13488;DHT22;6816;48.506;9.050;2023-06-22T16:06:15;32.70;61.70
13488;DHT22;6816;48.506;9.050;2023-06-22T16:09:15;32.60;61.70
13488;DHT22;6816;48.506;9.050;2023-06-22T16:12:16;32.50;62.10
13488;DHT22;6816;48.506;9.050;2023-06-22T16:15:17;32.40;62.20
13488;DHT22;6816;48.506;9.050;2023-06-22T16:18:17;32.30;63.60
13488;DHT22;6816;48.506;9.050;2023-06-22T16:21:18;32.20;63.20
13488;DHT22;6816;48.506;9.050;2023-06-22T16:24:19;32.00;63.40
13488;DHT22;6816;48.506;9.050;2023-06-22T16:27:19;31.80;63.00
13488;DHT22;6816;48.506;9.050;2023-06-22T16:30:20;31.60;63.20
13488;DHT22;6816;48.506;9.050;2023-06-22T16:33:21;31.50;63.70
13488;DHT22;6816;48.506;9.050;2023-06-22T16:36:21;31.40;64.10
13488;DHT22;6816;48.506;9.050;2023-06-22T16:39:22;31.30;64.40
13488;DHT22;6816;48.506;9.050;2023-06-22T16:42:23;31.20;65.60
13488;DHT22;6816;48.506;9.050;2023-06-22T16:45:23;31.20;65.40
13488;DHT22;6816;48.506;9.050;2023-06-22T16:48:24;31.20;65.80
13488;DHT22;6816;48.506;9.050;2023-06-22T16:51:25;31.10;66.30
13488;DHT22;6816;48.506;9.050;2023-06-22T16:54:31;31.10;66.60
13488;DHT22;6816;48.506;9.050;2023-06-22T16:57:33;31.10;65.70
13488;DHT22;6816;48.506;9.050;2023-06-22T17:00:33;31.10;66.90
13488;DHT22;6816;48.506;9.050;2023-06-22T17:03:43;31.10;66.90
13488;DHT22;6816;48.506;9.050;2023-06-22T17:06:52;31.00;65.40
13488;DHT22;6816;48.506;9.050;2023-06-22T17:09:54;30.90;65.30
13488;DHT22;6816;48.506;9.050;2023-06-22T17:12:56;30.90;65.90
13488;DHT22;6816;48.506;9.050;2023-06-22T17:15:59;30.80;65.50
13488;DHT22;6816;48.506;9.050;2023-06-22T17:19:03;30.80;65.20
13488;DHT22;6816;48.506;9.050;2023-06-22T17:22:05;30.70;65.40
13488;DHT22;6816;48.506;9.050;2023-06-22T17:25:08;30.60;65.10
13488;DHT22;6816;48.506;9.050;2023-06-22T17:28:09;30.60;64.70
13488;DHT22;6816;48.506;9.050;2023-06-22T17:31:10;30.50;64.50
13488;DHT22;6816;48.506;9.050;2023-06-22T17:34:11;30.50;64.30
13488;DHT22;6816;48.506;9.050;2023-06-22T17:37:12;30.40;63.90
13488;DHT22;6816;48.506;9.050;2023-06-22T17:40:18;30.30;63.90
13488;DHT22;6816;48.506;9.050;2023-06-22T17:43:19;30.20;62.20
13488;DHT22;6816;48.506;9.050;2023-06-22T17:46:21;30.10;63.40
13488;DHT22;6816;48.506;9.050;2023-06-22T17:49:27;30.00;63.50
13488;DHT22;6816;48.506;9.050;2023-06-22T17:52:30;30.00;62.20
13488;DHT22;6816;48.506;9.050;2023-06-22T17:55:33;29.90;62.40
13488;DHT22;6816;48.506;9.050;2023-06-22T17:58:33;29.80;62.60
13488;DHT22;6816;48.506;9.050;2023-06-22T18:01:36;29.70;63.20
13488;DHT22;6816;48.506;9.050;2023-06-22T18:04:40;29.60;62.90
13488;DHT22;6816;48.506;9.050;2023-06-22T18:07:41;29.50;62.90
13488;DHT22;6816;48.506;9.050;2023-06-22T18:10:42;29.40;63.30
13488;DHT22;6816;48.506;9.050;2023-06-22T18:13:44;29.30;63.20
13488;DHT22;6816;48.506;9.050;2023-06-22T18:16:46;29.20;63.50
13488;DHT22;6816;48.506;9.050;2023-06-22T18:19:47;29.20;64.20
13488;DHT22;6816;48.506;9.050;2023-06-22T18:22:48;29.10;66.30
13488;DHT22;6816;48.506;9.050;2023-06-22T18:25:49;29.00;67.20
13488;DHT22;6816;48.506;9.050;2023-06-22T18:28:55;28.80;67.50
13488;DHT22;6816;48.506;9.050;2023-06-22T18:31:56;28.70;68.00
13488;DHT22;6816;48.506;9.050;2023-06-22T18:34:57;28.50;68.80
13488;DHT22;6816;48.506;9.050;2023-06-22T18:37:59;28.30;69.10
13488;DHT22;6816;48.506;9.050;2023-06-22T18:41:00;28.20;69.40
13488;DHT22;6816;48.506;9.050;2023-06-22T18:44:02;28.00;69.70
13488;DHT22;6816;48.506;9.050;2023-06-22T18:47:04;27.80;69.90
13488;DHT22;6816;48.506;9.050;2023-06-22T18:50:08;27.70;70.80
13488;DHT22;6816;48.506;9.050;2023-06-22T18:53:27;27.60;71.20
13488;DHT22;6816;48.506;9.050;2023-06-22T18:56:29;27.40;70.80
13488;DHT22;6816;48.506;9.050;2023-06-22T18:59:49;27.20;71.80
13488;DHT22;6816;48.506;9.050;2023-06-22T19:02:59;27.00;71.40
13488;DHT22;6816;48.506;9.050;2023-06-22T19:06:00;26.70;73.30
13488;DHT22;6816;48.506;9.050;2023-06-22T19:09:14;26.50;74.40
13488;DHT22;6816;48.506;9.050;2023-06-22T19:12:20;26.40;74.90
13488;DHT22;6816;48.506;9.050;2023-06-22T19:15:21;26.20;75.70
13488;DHT22;6816;48.506;9.050;2023-06-22T19:18:33;26.00;76.30
13488;DHT22;6816;48.506;9.050;2023-06-22T19:21:34;25.80;76.80
13488;DHT22;6816;48.506;9.050;2023-06-22T19:24:49;25.60;77.20
13488;DHT22;6816;48.506;9.050;2023-06-22T19:27:53;25.50;77.00
13488;DHT22;6816;48.506;9.050;2023-06-22T19:30:56;25.40;77.70